Time;durP1;ratioP1;P1;durP2;ratioP2;P2;SDS_P1;SDS_P2;PMS_P1;PMS_P2;Temp;Humidity;BMP_temperature;BMP_pressure;BME280_temperature;BME280_humidity;BME280_pressure;Samples;Min_cycle;Max_cycle;Signal;HPM_P1;HPM_P2
2022/01/09 00:01:47;;;;;;;1.80;1.52;;;;;;;5.68;100.00;98686.81;4996173;28;20043;-46
2022/01/09 00:04:14;;;;;;;1.95;1.75;;;;;;;5.69;100.00;98681.09;4996044;28;20042;-48
2022/01/09 00:06:42;;;;;;;2.97;1.85;;;;;;;5.70;100.00;98690.00;4997245;28;20065;-49
2022/01/09 00:09:10;;;;;;;2.28;1.73;;;;;;;5.71;100.00;98687.03;4996116;28;20053;-50
2022/01/09 00:11:37;;;;;;;3.17;2.13;;;;;;;5.73;100.00;98700.25;4996876;28;20493;-48
2022/01/09 00:14:05;;;;;;;4.90;2.60;;;;;;;5.72;100.00;98709.44;4995631;28;20046;-50
2022/01/09 00:16:32;;;;;;;5.05;2.60;;;;;;;5.75;100.00;98708.88;4996882;28;20046;-52
2022/01/09 00:19:04;;;;;;;3.95;2.08;;;;;;;5.73;100.00;98713.75;4995858;28;20046;-51
2022/01/09 00:21:31;;;;;;;2.72;1.80;;;;;;;5.72;100.00;98733.75;4996869;28;20049;-51
2022/01/09 00:23:59;;;;;;;2.42;1.70;;;;;;;5.68;100.00;98736.25;4995625;28;20477;-50
2022/01/09 00:26:26;;;;;;;3.55;2.10;;;;;;;5.66;100.00;98743.03;4996584;28;20042;-50
2022/01/09 00:28:54;;;;;;;2.83;1.83;;;;;;;5.65;100.00;98752.19;4995546;28;20069;-50
2022/01/09 00:31:21;;;;;;;2.35;1.55;;;;;;;5.64;100.00;98756.00;4996664;28;20046;-50
2022/01/09 00:33:49;;;;;;;1.48;1.38;;;;;;;5.67;100.00;98771.63;4995592;28;20051;-46
2022/01/09 00:36:17;;;;;;;3.00;1.77;;;;;;;5.66;100.00;98770.03;4996524;28;20038;-49
2022/01/09 00:38:44;;;;;;;3.00;1.60;;;;;;;5.66;100.00;98787.03;5010358;28;20058;-51
2022/01/09 00:41:12;;;;;;;2.33;1.60;;;;;;;5.68;100.00;98794.88;4995085;28;20413;-50
2022/01/09 00:43:39;;;;;;;3.65;1.88;;;;;;;5.68;100.00;98789.47;4996369;28;20052;-47
2022/01/09 00:46:07;;;;;;;2.85;1.73;;;;;;;5.69;100.00;98786.47;4994128;28;20559;-50
2022/01/09 00:48:34;;;;;;;4.25;2.20;;;;;;;5.71;100.00;98800.50;4996275;28;20047;-47
2022/01/09 00:51:02;;;;;;;6.25;2.38;;;;;;;5.70;100.00;98814.28;4995380;28;20042;-50
2022/01/09 00:53:30;;;;;;;9.85;2.90;;;;;;;5.69;100.00;98829.69;4996346;28;20057;-50
2022/01/09 00:55:57;;;;;;;8.80;2.83;;;;;;;5.70;100.00;98835.91;4995092;28;20043;-53
2022/01/09 00:58:25;;;;;;;11.15;2.90;;;;;;;5.68;100.00;98857.03;4996044;28;20046;-51
2022/01/09 01:00:53;;;;;;;7.20;2.70;;;;;;;5.69;100.00;98840.50;4995145;28;20053;-54
2022/01/09 01:03:21;;;;;;;12.05;3.55;;;;;;;5.67;100.00;98861.59;4995800;28;20092;-51
2022/01/09 01:05:49;;;;;;;12.07;3.35;;;;;;;5.67;100.00;98875.09;4994922;28;20038;-51
2022/01/09 01:08:17;;;;;;;14.73;4.35;;;;;;;5.67;100.00;98890.50;4995729;28;20054;-49
2022/01/09 01:10:45;;;;;;;18.83;5.22;;;;;;;5.62;100.00;98869.75;4994716;28;20174;-49
2022/01/09 01:13:12;;;;;;;20.40;5.30;;;;;;;5.63;100.00;98881.34;4995855;28;20038;-49
2022/01/09 01:15:40;;;;;;;23.15;5.63;;;;;;;5.62;100.00;98888.66;4994650;28;20476;-51
2022/01/09 01:18:08;;;;;;;21.17;5.32;;;;;;;5.62;100.00;98872.44;4995032;28;20034;-53
2022/01/09 01:20:36;;;;;;;24.85;5.63;;;;;;;5.64;100.00;98886.47;4995861;28;20073;-51
2022/01/09 01:23:03;;;;;;;18.63;5.75;;;;;;;5.69;100.00;98896.44;4995339;28;20033;-52
2022/01/09 01:25:32;;;;;;;25.90;5.80;;;;;;;5.68;100.00;98919.16;4994106;28;20049;-49
2022/01/09 01:27:59;;;;;;;18.70;5.18;;;;;;;5.68;100.00;98919.16;4995380;28;20042;-50
2022/01/09 01:30:27;;;;;;;21.42;5.38;;;;;;;5.68;100.00;98887.53;4994822;28;20065;-48
2022/01/09 01:32:54;;;;;;;18.70;5.30;;;;;;;5.69;100.00;98923.47;4994563;28;20444;-51
2022/01/09 01:35:22;;;;;;;22.60;5.35;;;;;;;5.68;100.00;98919.16;4995446;28;20035;-48
2022/01/09 01:37:50;;;;;;;24.67;5.35;;;;;;;5.71;100.00;98945.59;4994161;28;20049;-51
2022/01/09 01:40:19;;;;;;;22.75;5.55;;;;;;;5.71;100.00;98929.41;4995394;28;20054;-48
2022/01/09 01:42:47;;;;;;;22.88;6.20;;;;;;;5.72;100.00;98949.91;4995310;28;20452;-48
2022/01/09 01:45:14;;;;;;;22.88;5.72;;;;;;;5.74;100.00;98950.44;4994277;28;20054;-48
2022/01/09 01:47:42;;;;;;;26.90;6.78;;;;;;;5.78;100.00;98943.38;4994266;28;20058;-45
2022/01/09 01:50:13;;;;;;;28.15;6.85;;;;;;;5.81;100.00;98950.13;4994544;28;20046;-50
2022/01/09 01:52:44;;;;;;;25.88;7.05;;;;;;;5.80;100.00;98960.13;4994316;28;20505;-49
2022/01/09 01:55:13;;;;;;;31.95;6.93;;;;;;;5.82;100.00;98963.38;4993646;28;20046;-50
2022/01/09 01:57:42;;;;;;;31.45;8.00;;;;;;;5.83;100.00;98964.97;4993757;28;20042;-49
2022/01/09 02:00:13;;;;;;;27.65;7.15;;;;;;;5.88;100.00;98978.44;4995138;28;20053;-51
2022/01/09 02:02:41;;;;;;;28.02;6.78;;;;;;;5.86;100.00;98986.00;4994887;28;20081;-49
2022/01/09 02:05:09;;;;;;;34.03;7.57;;;;;;;5.85;100.00;98992.53;4993849;28;20038;-52
2022/01/09 02:07:38;;;;;;;31.35;7.90;;;;;;;5.85;100.00;98997.94;4992435;28;20053;-49
2022/01/09 02:10:10;;;;;;;33.90;7.90;;;;;;;5.85;100.00;99010.63;5001911;28;20041;-49
2022/01/09 02:12:40;;;;;;;30.80;7.20;;;;;;;5.85;100.00;99008.75;5011561;28;20042;-49
2022/01/09 02:15:34;;;;;;;32.72;7.63;;;;;;;5.85;100.00;99014.16;5013195;28;20053;-49
2022/01/09 02:18:04;;;;;;;25.52;7.18;;;;;;;5.87;100.00;99020.06;5013262;28;20046;-46
2022/01/09 02:20:32;;;;;;;31.15;7.47;;;;;;;5.87;100.00;99032.75;5011511;28;20034;-51
2022/01/09 02:23:00;;;;;;;25.10;6.60;;;;;;;5.89;100.00;99049.50;5011199;28;20064;-49
2022/01/09 02:25:28;;;;;;;32.72;7.53;;;;;;;5.90;100.00;99045.72;5012904;28;20037;-50
2022/01/09 02:27:56;;;;;;;27.40;7.20;;;;;;;5.87;100.00;99052.50;5013247;28;20120;-45
2022/01/09 02:30:24;;;;;;;31.10;8.05;;;;;;;5.88;100.00;99056.81;5011562;28;20058;-50
2022/01/09 02:32:52;;;;;;;29.77;7.80;;;;;;;5.89;100.00;99055.75;4994043;28;20034;-50
2022/01/09 02:35:23;;;;;;;32.67;7.55;;;;;;;5.90;100.00;99067.34;4993609;28;20050;-51
2022/01/09 02:37:51;;;;;;;30.58;7.35;;;;;;;5.89;100.00;99073.84;4991807;28;20405;-51
2022/01/09 02:40:19;;;;;;;29.00;7.53;;;;;;;5.90;100.00;99087.09;4991991;28;20046;-50
2022/01/09 02:42:47;;;;;;;34.25;7.53;;;;;;;5.90;100.00;99089.78;4995503;28;20046;-51
2022/01/09 02:45:18;;;;;;;32.50;7.32;;;;;;;5.95;100.00;99095.19;4993188;28;20049;-49
2022/01/09 02:47:53;;;;;;;32.10;7.82;;;;;;;5.94;100.00;99099.00;4993555;28;20046;-49
2022/01/09 02:52:56;;;;;;;28.33;6.80;;;;;;;5.96;100.00;99104.94;4994540;28;20042;-49
2022/01/09 02:55:25;;;;;;;26.05;7.10;;;;;;;5.95;100.00;99108.69;4992953;28;20132;-53
2022/01/09 02:57:58;;;;;;;31.17;6.95;;;;;;;5.97;100.00;99116.53;4993365;28;20043;-50
2022/01/09 03:00:34;;;;;;;26.75;6.53;;;;;;;5.96;100.00;99134.66;4994436;28;20531;-52
2022/01/09 03:03:02;;;;;;;;;;;;;;;5.97;100.00;99143.56;4994792;28;20068;-50
2022/01/09 03:05:30;;;;;;;23.70;6.10;;;;;;;5.95;100.00;99138.44;4993382;28;19922;-50
2022/01/09 03:07:58;;;;;;;28.00;6.38;;;;;;;5.97;100.00;99138.97;4993084;28;20046;-49
2022/01/09 03:10:25;;;;;;;22.30;6.18;;;;;;;5.97;100.00;99149.78;4996688;28;20157;-49
2022/01/09 03:12:58;;;;;;;26.75;6.47;;;;;;;5.95;100.00;99148.44;4997021;28;20046;-46
2022/01/09 03:15:26;;;;;;;27.80;6.35;;;;;;;5.96;100.00;99159.00;5015863;28;20408;-48
2022/01/09 03:17:54;;;;;;;22.85;6.65;;;;;;;5.95;100.00;99161.97;5016840;28;20500;-49
2022/01/09 03:20:24;;;;;;;30.08;6.80;;;;;;;5.94;100.00;99171.97;5016587;28;20050;-50
2022/01/09 03:22:53;;;;;;;29.48;6.68;;;;;;;5.96;100.00;99168.97;5014518;28;20077;-49
2022/01/09 03:25:21;;;;;;;25.58;6.63;;;;;;;5.95;100.00;99180.88;5014459;28;20053;-49
2022/01/09 03:27:49;;;;;;;27.70;6.18;;;;;;;5.96;100.00;99190.59;5016261;28;20125;-49
2022/01/09 03:30:19;;;;;;;23.38;5.93;;;;;;;5.95;100.00;99194.41;5014674;28;20053;-48
2022/01/09 03:32:48;;;;;;;26.67;7.00;;;;;;;5.92;100.00;99200.34;5016687;28;20045;-49
2022/01/09 03:35:18;;;;;;;23.77;6.25;;;;;;;5.92;100.00;99200.34;5014643;28;20049;-45
2022/01/09 03:37:47;;;;;;;26.10;6.32;;;;;;;5.93;100.00;99210.84;5014793;28;20049;-49
2022/01/09 03:40:20;;;;;;;22.33;5.85;;;;;;;5.91;100.00;99210.31;5016586;28;20058;-49
2022/01/09 03:42:49;;;;;;;22.05;5.93;;;;;;;5.92;100.00;99227.38;5014687;28;20038;-50
2022/01/09 03:45:17;;;;;;;26.58;6.25;;;;;;;5.92;100.00;99233.59;5014542;28;20050;-50
2022/01/09 03:47:45;;;;;;;19.90;5.15;;;;;;;5.93;100.00;99237.88;5015704;28;20042;-49
2022/01/09 03:50:13;;;;;;;17.73;5.63;;;;;;;5.92;100.00;99240.88;5013959;28;20042;-49
2022/01/09 03:52:41;;;;;;;22.30;5.30;;;;;;;5.91;100.00;99260.88;5014806;28;20049;-52
2022/01/09 03:55:12;;;;;;;20.33;5.25;;;;;;;5.91;100.00;99252.78;5015821;28;20045;-50
2022/01/09 03:57:40;;;;;;;21.20;5.53;;;;;;;5.89;99.52;99261.16;5014156;28;20046;-49
2022/01/09 04:00:11;;;;;;;19.48;5.38;;;;;;;5.87;99.85;99257.94;5007272;28;20045;-51
2022/01/09 04:02:40;;;;;;;22.23;5.57;;;;;;;5.88;99.80;99280.34;4996116;28;20050;-49
2022/01/09 04:05:08;;;;;;;22.60;5.78;;;;;;;5.88;99.84;99275.75;4996160;28;20046;-50
2022/01/09 04:07:37;;;;;;;21.42;5.18;;;;;;;5.88;99.94;99291.97;4997320;28;20065;-53
2022/01/09 04:10:05;;;;;;;22.20;5.32;;;;;;;5.86;100.00;99294.13;4996987;28;20469;-49
2022/01/09 04:12:36;;;;;;;18.15;5.18;;;;;;;5.89;99.81;99299.00;4995602;28;20520;-52
2022/01/09 04:15:06;;;;;;;18.95;5.20;;;;;;;5.87;99.51;99306.59;4996040;28;20056;-51
2022/01/09 04:20:07;;;;;;;19.38;5.30;;;;;;;5.84;98.87;99323.31;4996183;28;20468;-50
2022/01/09 04:22:35;;;;;;;23.60;5.32;;;;;;;5.84;98.63;99325.22;4996302;28;20093;-50
2022/01/09 04:25:04;;;;;;;21.30;5.03;;;;;;;5.83;98.28;99327.13;4995596;28;20054;-48
2022/01/09 04:27:33;;;;;;;19.73;5.00;;;;;;;5.83;98.49;99342.53;4996501;28;20050;-49
2022/01/09 04:30:01;;;;;;;22.08;5.22;;;;;;;5.81;97.34;99350.09;4995710;28;20048;-48
2022/01/09 04:32:28;;;;;;;16.08;4.35;;;;;;;5.80;96.59;99352.00;4997341;28;20045;-49
2022/01/09 04:34:56;;;;;;;17.88;5.28;;;;;;;5.80;96.07;99356.56;4995492;28;20061;-48
2022/01/09 04:37:24;;;;;;;19.27;4.93;;;;;;;5.80;95.96;99361.97;4996794;28;20049;-47
2022/01/09 04:39:53;;;;;;;20.75;5.70;;;;;;;5.78;96.06;99370.38;4995483;28;20405;-49
2022/01/09 04:42:26;;;;;;;22.45;4.45;;;;;;;5.78;95.94;99367.69;4996507;28;20129;-49
2022/01/09 04:44:54;;;;;;;18.45;5.10;;;;;;;5.75;95.48;99379.03;4995514;28;20053;-51
2022/01/09 04:47:21;;;;;;;15.90;4.60;;;;;;;5.73;95.18;99375.78;4996449;28;20045;-51
2022/01/09 04:49:50;;;;;;;18.33;4.68;;;;;;;5.73;95.30;99394.72;4995361;28;20045;-50
2022/01/09 04:52:22;;;;;;;16.63;4.43;;;;;;;5.72;95.21;99395.78;4996204;28;20046;-49
2022/01/09 04:54:49;;;;;;;19.13;4.72;;;;;;;5.72;94.83;99406.59;4995019;28;20050;-51
2022/01/09 04:57:17;;;;;;;20.35;4.82;;;;;;;5.63;94.34;99402.78;4996159;28;20039;-45
2022/01/09 04:59:45;;;;;;;22.42;4.78;;;;;;;5.57;94.97;99403.91;4995363;28;20070;-47
2022/01/09 05:02:12;;;;;;;18.85;4.75;;;;;;;5.55;95.68;99407.66;4996002;28;20046;-48
2022/01/09 05:04:40;;;;;;;17.27;4.55;;;;;;;5.52;94.76;99412.81;5010050;28;20046;-46
2022/01/09 05:07:08;;;;;;;17.73;4.40;;;;;;;5.50;94.74;99436.56;4994800;28;20089;-47
2022/01/09 05:09:35;;;;;;;19.35;4.75;;;;;;;5.47;94.86;99431.72;4995984;28;20055;-46
2022/01/09 05:12:03;;;;;;;15.32;3.90;;;;;;;5.46;95.23;99435.47;4995598;28;20138;-46
2022/01/09 05:14:31;;;;;;;17.55;4.85;;;;;;;5.49;94.89;99446.56;4995057;28;20046;-48
2022/01/09 05:16:58;;;;;;;18.98;4.90;;;;;;;5.44;95.15;99446.56;4995915;28;20081;-44
2022/01/09 05:19:31;;;;;;;18.27;4.25;;;;;;;5.40;95.35;99453.56;4994797;28;20109;-48
2022/01/09 05:22:00;;;;;;;15.75;4.10;;;;;;;5.41;95.43;99463.31;4995668;28;20042;-53
2022/01/09 05:24:28;;;;;;;19.88;4.70;;;;;;;5.39;94.82;99468.16;4995065;28;20046;-47
2022/01/09 05:26:56;;;;;;;14.30;4.00;;;;;;;5.39;95.06;99468.16;4996060;28;20064;-48
2022/01/09 05:29:24;;;;;;;15.13;4.20;;;;;;;5.41;95.32;99478.69;4994501;28;20034;-49
2022/01/09 05:31:52;;;;;;;17.67;4.82;;;;;;;5.38;94.74;99493.53;4994743;28;20061;-48
2022/01/09 05:34:19;;;;;;;14.10;3.95;;;;;;;5.38;94.65;99490.84;4994697;28;20069;-56
2022/01/09 05:36:47;;;;;;;17.10;4.15;;;;;;;5.38;94.60;99498.13;4994516;28;20523;-49
2022/01/09 05:39:15;;;;;;;13.45;4.22;;;;;;;5.34;94.59;99508.69;4994457;28;20035;-50
2022/01/09 05:41:44;;;;;;;13.43;3.90;;;;;;;5.35;95.21;99510.28;4994992;28;20053;-46
2022/01/09 05:44:12;;;;;;;18.70;4.32;;;;;;;5.34;94.93;99517.59;4994321;28;20536;-49
2022/01/09 05:46:39;;;;;;;15.68;4.30;;;;;;;5.33;95.39;99512.44;4994365;28;20051;-49
2022/01/09 05:49:07;;;;;;;14.35;4.30;;;;;;;5.28;95.31;99515.94;4995350;28;20070;-48
2022/01/09 05:51:35;;;;;;;16.05;4.20;;;;;;;5.27;95.99;99516.22;4995176;28;20401;-48
2022/01/09 05:54:02;;;;;;;18.17;4.43;;;;;;;5.27;96.25;99518.91;4993765;28;20477;-49
2022/01/09 05:56:30;;;;;;;16.05;4.50;;;;;;;5.25;96.58;99523.75;4994003;28;20496;-49
2022/01/09 05:58:58;;;;;;;15.10;4.25;;;;;;;5.26;96.73;99533.47;4994998;28;20039;-48
2022/01/09 06:01:25;;;;;;;18.58;4.47;;;;;;;5.20;96.63;99534.56;5003896;28;20057;-46
2022/01/09 06:03:53;;;;;;;16.90;4.45;;;;;;;5.18;97.13;99536.69;5012073;28;20042;-47
2022/01/09 06:06:21;;;;;;;18.27;4.65;;;;;;;5.21;97.09;99544.25;5013415;28;20038;-45
2022/01/09 06:08:48;;;;;;;17.65;4.35;;;;;;;5.22;96.92;99548.56;5011946;28;20050;-48
2022/01/09 06:11:16;;;;;;;19.85;4.30;;;;;;;5.21;97.24;99555.88;5013166;28;20042;-46
2022/01/09 06:13:43;;;;;;;16.65;4.18;;;;;;;5.23;97.06;99558.31;5012183;28;20048;-50
2022/01/09 06:16:11;;;;;;;17.70;4.00;;;;;;;5.21;97.12;99553.16;5013585;28;20046;-48
2022/01/09 06:18:39;;;;;;;23.42;5.15;;;;;;;5.21;96.89;99558.56;5012812;28;20038;-52
2022/01/09 06:21:07;;;;;;;16.60;4.30;;;;;;;5.22;97.00;99559.38;5014247;28;20049;-49
2022/01/09 06:23:34;;;;;;;17.55;4.63;;;;;;;5.21;96.13;99563.16;5011422;28;20480;-47
2022/01/09 06:26:02;;;;;;;12.88;4.03;;;;;;;5.20;96.08;99566.94;5013183;28;20046;-49
2022/01/09 06:28:30;;;;;;;15.15;4.15;;;;;;;5.22;95.71;99570.19;4950769;29;20418;-48
2022/01/09 06:30:58;;;;;;;15.93;4.40;;;;;;;5.20;96.16;99581.25;4952028;29;20513;-47
2022/01/09 06:33:25;;;;;;;15.32;4.50;;;;;;;5.21;95.27;99582.06;4952112;29;20075;-47
2022/01/09 06:35:53;;;;;;;14.05;3.97;;;;;;;5.19;95.51;99576.09;4951637;29;20073;-50
2022/01/09 06:38:20;;;;;;;17.25;4.47;;;;;;;5.18;95.71;99580.72;4952969;29;20054;-45
2022/01/09 06:40:48;;;;;;;17.65;4.45;;;;;;;5.20;95.84;99588.56;4950616;29;20482;-48
2022/01/09 06:43:15;;;;;;;16.15;3.92;;;;;;;5.19;95.77;99593.13;4951503;29;20047;-50
2022/01/09 06:45:43;;;;;;;14.52;4.00;;;;;;;5.21;96.24;99603.66;4956853;28;20167;-46
2022/01/09 06:48:11;;;;;;;18.33;3.92;;;;;;;5.22;95.97;99608.81;5012423;28;20042;-52
2022/01/09 06:50:39;;;;;;;15.70;4.15;;;;;;;5.27;96.03;99610.72;5010878;28;20092;-45
2022/01/09 06:53:06;;;;;;;15.13;4.22;;;;;;;5.28;96.44;99620.44;5012575;28;20121;-47
2022/01/09 06:55:34;;;;;;;14.63;4.28;;;;;;;5.26;96.24;99625.28;4998917;28;20133;-46
2022/01/09 06:58:02;;;;;;;17.40;4.45;;;;;;;5.26;96.59;99625.28;4992061;28;20046;-47
2022/01/09 07:00:29;;;;;;;14.77;4.25;;;;;;;5.22;95.90;99629.59;4993719;28;20158;-46
2022/01/09 07:02:57;;;;;;;14.18;4.35;;;;;;;5.22;95.33;99640.38;4992431;28;20081;-48
2022/01/09 07:05:25;;;;;;;16.13;4.03;;;;;;;5.16;94.95;99641.44;4993178;28;20042;-48
2022/01/09 07:07:52;;;;;;;14.65;4.13;;;;;;;5.15;95.08;99650.59;4992467;28;20078;-49
2022/01/09 07:10:20;;;;;;;12.60;3.58;;;;;;;5.15;95.06;99662.25;4992015;28;20038;-48
2022/01/09 07:12:47;;;;;;;13.68;4.00;;;;;;;5.16;95.15;99669.25;4993489;28;20050;-46
2022/01/09 07:15:15;;;;;;;17.42;4.10;;;;;;;5.18;95.63;99667.09;5004813;28;20042;-46
2022/01/09 07:17:42;;;;;;;15.98;4.28;;;;;;;5.21;96.14;99671.97;5012210;28;20045;-51
2022/01/09 07:20:11;;;;;;;13.30;3.85;;;;;;;5.16;97.38;99671.97;5012168;28;20042;-55
2022/01/09 07:22:38;;;;;;;13.25;3.65;;;;;;;5.19;97.42;99668.72;5010567;28;20070;-50
2022/01/09 07:25:06;;;;;;;14.00;3.67;;;;;;;5.17;97.73;99676.28;5009722;28;20069;-51
2022/01/09 07:27:34;;;;;;;11.73;3.92;;;;;;;5.12;97.58;99679.78;5011878;28;20057;-50
2022/01/09 07:32:14;;;;;;;14.15;4.05;;;;;;;5.11;98.18;99683.53;5069972;28;20403;-50
2022/01/09 07:34:42;;;;;;;17.17;4.10;;;;;;;5.11;98.55;99680.84;5069921;28;20127;-52
2022/01/09 07:37:10;;;;;;;15.63;4.50;;;;;;;5.09;99.08;99691.06;5068547;28;20147;-52
2022/01/09 07:39:38;;;;;;;13.40;3.63;;;;;;;5.08;99.16;99694.06;5070409;28;20102;-52
2022/01/09 07:42:06;;;;;;;20.88;4.07;;;;;;;5.08;99.50;99689.47;5069801;28;20051;-53
2022/01/09 07:44:34;;;;;;;14.20;4.25;;;;;;;5.15;99.27;99693.81;5042229;28;20048;-53
2022/01/09 07:47:01;;;;;;;18.08;4.25;;;;;;;5.17;98.57;99695.19;5042712;28;20041;-50
2022/01/09 07:49:29;;;;;;;15.10;3.90;;;;;;;5.17;98.46;99703.31;5046068;28;20052;-49
2022/01/09 07:51:57;;;;;;;15.32;3.58;;;;;;;5.19;98.05;99711.13;5060210;28;20049;-49
2022/01/09 07:54:24;;;;;;;17.52;4.38;;;;;;;5.21;98.39;99719.78;5050036;28;20045;-52
2022/01/09 07:56:52;;;;;;;16.30;4.20;;;;;;;5.21;98.17;99722.47;5050410;28;20048;-51
2022/01/09 07:59:19;;;;;;;16.83;4.45;;;;;;;5.20;97.98;99745.97;5049936;28;20045;-51
2022/01/09 08:01:49;;;;;;;14.52;3.53;;;;;;;5.20;97.54;99734.38;5049476;28;20128;-54
2022/01/09 08:04:17;;;;;;;11.85;3.85;;;;;;;5.21;97.46;99741.38;5049250;28;20041;-52
2022/01/09 08:06:45;;;;;;;14.57;3.85;;;;;;;5.21;97.31;99744.88;5049538;28;20068;-49
2022/01/09 08:09:12;;;;;;;11.75;3.75;;;;;;;5.21;97.25;99746.78;5049915;28;20052;-52
2022/01/09 08:11:40;;;;;;;11.88;3.63;;;;;;;5.21;96.49;99754.88;5049084;28;20045;-54
2022/01/09 08:14:08;;;;;;;11.82;3.83;;;;;;;5.21;96.12;99761.09;5049327;28;20038;-54
2022/01/09 08:16:36;;;;;;;13.05;3.58;;;;;;;5.22;95.62;99759.19;5048680;28;20037;-49
2022/01/09 08:19:03;;;;;;;10.63;3.20;;;;;;;5.21;94.18;99774.59;5049398;28;20056;-49
2022/01/09 08:21:31;;;;;;;12.27;3.30;;;;;;;5.21;94.07;99784.59;5049404;28;20415;-48
2022/01/09 08:23:59;;;;;;;10.45;3.30;;;;;;;5.22;93.68;99778.09;5049035;28;20041;-50
2022/01/09 08:26:26;;;;;;;13.70;3.47;;;;;;;5.19;93.97;99775.94;5049076;28;20204;-49
2022/01/09 08:28:54;;;;;;;10.73;3.13;;;;;;;5.20;94.44;99778.38;5047750;28;20065;-49
2022/01/09 08:31:22;;;;;;;11.05;3.40;;;;;;;5.26;95.11;99777.34;5030857;28;20053;-50
2022/01/09 08:33:50;;;;;;;14.27;4.35;;;;;;;5.28;94.94;99774.38;5049034;28;20045;-49
2022/01/09 08:36:17;;;;;;;13.82;3.45;;;;;;;5.26;94.59;99787.31;5048287;28;20064;-49
2022/01/09 08:38:47;;;;;;;13.35;3.85;;;;;;;5.26;95.51;99795.44;5047305;28;20151;-48
2022/01/09 08:41:15;;;;;;;11.95;3.65;;;;;;;5.25;95.58;99796.50;5048214;28;20492;-51
2022/01/09 08:43:42;;;;;;;13.52;3.63;;;;;;;5.29;95.95;99792.19;5034449;28;20052;-49
2022/01/09 08:46:10;;;;;;;10.88;3.30;;;;;;;5.32;96.12;99791.72;5034021;28;20045;-51
2022/01/09 08:48:37;;;;;;;13.10;3.60;;;;;;;5.36;96.52;99794.69;5035095;28;20042;-53
2022/01/09 08:51:06;;;;;;;11.65;3.40;;;;;;;5.39;96.68;99805.81;5034036;28;20045;-49
2022/01/09 08:53:37;;;;;;;12.25;3.55;;;;;;;5.40;96.53;99809.31;5035361;28;20037;-49
2022/01/09 08:56:05;;;;;;;12.65;3.53;;;;;;;5.41;96.84;99811.78;5035518;28;20143;-49
2022/01/09 08:58:33;;;;;;;15.45;4.05;;;;;;;5.42;97.51;99815.28;5033513;28;20130;-50
2022/01/09 09:01:01;;;;;;;17.92;4.35;;;;;;;5.42;97.08;99818.78;5034132;28;20048;-49
2022/01/09 09:03:28;;;;;;;13.68;4.03;;;;;;;5.38;97.04;99823.06;5035149;28;20453;-52
2022/01/09 09:05:56;;;;;;;16.92;4.18;;;;;;;5.39;96.98;99823.88;5035089;28;20057;-51
2022/01/09 09:08:24;;;;;;;14.18;4.13;;;;;;;5.38;97.29;99828.47;5034605;28;20038;-50
2022/01/09 09:10:51;;;;;;;14.68;4.28;;;;;;;5.40;97.00;99837.13;5033988;28;20056;-55
2022/01/09 09:13:19;;;;;;;14.30;3.90;;;;;;;5.38;96.87;99841.16;5035007;28;20038;-50
2022/01/09 09:15:46;;;;;;;16.52;4.30;;;;;;;5.32;95.96;99835.72;5035000;28;20046;-49
2022/01/09 09:18:14;;;;;;;12.13;3.72;;;;;;;5.31;96.59;99844.06;5034543;28;20049;-51
2022/01/09 09:20:44;;;;;;;16.20;4.13;;;;;;;5.28;96.94;99856.22;5035033;28;20045;-52
2022/01/09 09:23:11;;;;;;;14.60;4.28;;;;;;;5.30;97.13;99864.06;5034726;28;20057;-54
2022/01/09 09:25:39;;;;;;;13.05;4.10;;;;;;;5.27;97.04;99862.69;5033506;28;20488;-51
2022/01/09 09:28:07;;;;;;;15.55;4.18;;;;;;;5.28;97.15;99866.22;5034148;28;20048;-51
2022/01/09 09:30:34;;;;;;;13.93;4.03;;;;;;;5.30;97.60;99864.06;5032899;28;20054;-51
2022/01/09 09:33:03;;;;;;;11.90;3.85;;;;;;;5.33;97.78;99868.94;5033640;28;20389;-55
2022/01/09 09:35:32;;;;;;;15.57;4.30;;;;;;;5.41;97.81;99881.16;5033460;28;20410;-54
2022/01/09 09:38:00;;;;;;;14.57;3.97;;;;;;;5.38;97.79;99879.78;5034418;28;20052;-54
2022/01/09 09:40:28;;;;;;;13.40;4.28;;;;;;;5.37;98.29;99878.19;5033924;28;20040;-49
2022/01/09 09:42:56;;;;;;;13.65;3.83;;;;;;;5.39;98.51;99884.16;5034092;28;20499;-52
2022/01/09 09:45:25;;;;;;;13.82;4.00;;;;;;;5.36;98.47;99884.63;5034475;28;20048;-51
2022/01/09 09:47:53;;;;;;;14.27;4.65;;;;;;;5.39;98.62;99888.72;5034333;28;20041;-50
2022/01/09 09:50:21;;;;;;;13.32;4.50;;;;;;;5.41;98.19;99887.41;5033949;28;20124;-53
2022/01/09 09:52:49;;;;;;;12.32;4.32;;;;;;;5.42;98.45;99888.22;5033097;28;20039;-50
2022/01/09 09:55:18;;;;;;;16.25;4.50;;;;;;;5.41;98.40;99892.81;5034674;28;20060;-47
2022/01/09 09:57:46;;;;;;;15.88;4.47;;;;;;;5.47;97.92;99890.97;5033947;28;20530;-51
2022/01/09 10:00:17;;;;;;;14.15;4.10;;;;;;;5.44;97.71;99900.38;5033416;28;20044;-50
2022/01/09 10:02:57;;;;;;;14.45;3.95;;;;;;;5.42;97.73;99910.63;5034128;28;20050;-53
2022/01/09 10:05:35;;;;;;;14.50;4.00;;;;;;;5.42;97.77;99909.81;5032761;28;20048;-50
2022/01/09 10:08:12;;;;;;;13.23;3.80;;;;;;;5.40;98.39;99912.78;5032489;28;20140;-50
2022/01/09 10:10:40;;;;;;;14.25;4.10;;;;;;;5.42;98.58;99932.25;5033364;28;20038;-48
2022/01/09 10:13:17;;;;;;;11.80;3.70;;;;;;;5.39;99.63;99924.66;5032571;28;20049;-51
2022/01/09 10:15:49;;;;;;;18.38;4.80;;;;;;;5.36;99.63;99919.75;5033023;28;20108;-52
2022/01/09 10:18:40;;;;;;;17.98;4.20;;;;;;;5.36;99.66;99929.75;5032597;28;20393;-51
2022/01/09 10:21:13;;;;;;;14.95;4.15;;;;;;;5.37;100.00;99923.28;5033406;28;20049;-51
2022/01/09 10:23:57;;;;;;;15.48;4.45;;;;;;;5.41;100.00;99925.22;5033533;28;20042;-50
2022/01/09 10:26:26;;;;;;;15.70;4.70;;;;;;;5.44;100.00;99935.50;5032632;28;20041;-53
2022/01/09 10:28:53;;;;;;;19.85;4.25;;;;;;;5.50;100.00;99925.56;5033634;28;20069;-53
2022/01/09 10:31:21;;;;;;;15.15;4.25;;;;;;;5.52;100.00;99932.34;5031624;28;20061;-52
2022/01/09 10:33:59;;;;;;;14.55;4.20;;;;;;;5.57;100.00;99941.56;5033130;28;20043;-51
2022/01/09 10:36:48;;;;;;;16.27;4.30;;;;;;;5.55;99.08;99933.69;5033555;28;20048;-53
2022/01/09 10:39:28;;;;;;;17.52;5.03;;;;;;;5.54;98.71;99937.50;5032032;28;20045;-52
2022/01/09 10:42:03;;;;;;;15.73;4.38;;;;;;;5.51;97.70;99941.53;5032197;28;20102;-49
2022/01/09 10:44:34;;;;;;;13.85;4.07;;;;;;;5.54;97.91;99941.00;5032844;28;20041;-49
2022/01/09 10:47:07;;;;;;;12.82;4.10;;;;;;;5.58;97.99;99945.88;5031807;28;20041;-49
2022/01/09 10:49:39;;;;;;;18.75;4.22;;;;;;;5.57;97.84;99950.47;5034867;28;20053;-48
2022/01/09 10:52:16;;;;;;;18.85;4.50;;;;;;;5.54;97.77;99959.91;5032908;28;20115;-51
2022/01/09 10:54:46;;;;;;;15.43;3.92;;;;;;;5.49;97.71;99965.28;5032506;28;20133;-51
2022/01/09 10:57:17;;;;;;;12.48;3.65;;;;;;;5.46;96.92;99948.75;5031723;28;20046;-46
2022/01/09 10:59:45;;;;;;;13.82;3.97;;;;;;;5.44;96.85;99956.31;5015090;28;20132;-49
2022/01/09 11:02:13;;;;;;;13.50;3.70;;;;;;;5.42;96.95;99953.84;5032636;28;20136;-51
2022/01/09 11:04:42;;;;;;;11.55;3.58;;;;;;;5.42;97.08;99967.38;5032619;28;20107;-48
2022/01/09 11:07:11;;;;;;;11.05;3.17;;;;;;;5.43;96.77;99968.97;5032040;28;20503;-52
2022/01/09 11:09:41;;;;;;;9.20;3.30;;;;;;;5.42;96.79;99982.75;5032850;28;20044;-53
2022/01/09 11:12:10;;;;;;;10.10;3.25;;;;;;;5.41;97.31;99976.56;5032507;28;20131;-51
2022/01/09 11:14:41;;;;;;;8.95;3.10;;;;;;;5.39;97.30;99976.00;5030923;28;20572;-50
2022/01/09 11:17:10;;;;;;;14.13;3.47;;;;;;;5.43;97.88;99977.09;5015276;28;20041;-50
2022/01/09 11:19:38;;;;;;;11.18;3.70;;;;;;;5.48;98.19;99979.88;5032557;28;20252;-52
2022/01/09 11:22:10;;;;;;;11.27;3.47;;;;;;;5.51;98.47;99982.06;5032376;28;20042;-49
2022/01/09 11:25:02;;;;;;;11.63;3.85;;;;;;;5.58;98.82;99989.13;5031240;28;20471;-52
2022/01/09 11:27:51;;;;;;;11.32;3.80;;;;;;;5.61;98.99;99983.22;5031304;28;20054;-51
2022/01/09 11:30:39;;;;;;;12.60;4.03;;;;;;;5.68;99.25;99987.34;5032723;28;20099;-48
2022/01/09 11:33:42;;;;;;;17.70;4.22;;;;;;;5.74;99.45;99982.78;5032380;28;20053;-49
2022/01/09 11:36:21;;;;;;;14.00;4.40;;;;;;;5.79;99.62;99990.94;5014936;28;20045;-53
2022/01/09 11:39:14;;;;;;;17.23;4.32;;;;;;;5.78;100.00;99988.50;5032113;28;20046;-49
2022/01/09 11:41:43;;;;;;;12.38;4.00;;;;;;;5.78;99.68;99994.72;5033814;28;20048;-50
2022/01/09 11:44:14;;;;;;;19.70;4.57;;;;;;;5.78;100.00;99993.91;5013377;28;20043;-52
2022/01/09 11:47:00;;;;;;;16.27;4.72;;;;;;;5.76;100.00;99994.16;5012488;28;20521;-52
2022/01/09 11:49:29;;;;;;;19.15;5.30;;;;;;;5.78;100.00;99992.03;5012945;28;20034;-51